Time;durP1;ratioP1;P1;durP2;ratioP2;P2;SDS_P1;SDS_P2;PMS_P1;PMS_P2;Temp;Humidity;BMP_temperature;BMP_pressure;BME280_temperature;BME280_humidity;BME280_pressure;Samples;Min_cycle;Max_cycle;Signal;HPM_P1;HPM_P2
2022/03/02 00:02:10;;;;;;;;;58.25;47.75;;;;;9.10;57.45;101682.28;5018602;28;45490;-91
2022/03/02 00:04:36;;;;;;;;;59.25;47.75;;;;;8.97;57.50;101668.50;5018161;28;45481;-90
2022/03/02 00:07:01;;;;;;;;;59.00;46.25;;;;;9.07;57.11;101684.75;5017766;28;46222;-90
2022/03/02 00:09:26;;;;;;;;;56.25;45.75;;;;;9.10;56.70;101698.00;5017828;28;45222;-88
2022/03/02 00:11:52;;;;;;;;;63.75;49.25;;;;;9.10;56.85;101704.16;5000440;28;45921;-90
2022/03/02 00:14:18;;;;;;;;;55.00;45.33;;;;;9.02;57.24;101695.88;5025309;28;45537;-88
2022/03/02 00:16:43;;;;;;;;;54.50;45.00;;;;;8.99;57.27;101695.69;5058170;28;45329;-91
2022/03/02 00:19:09;;;;;;;;;61.33;50.67;;;;;8.95;57.46;101695.44;5058083;28;45356;-90
2022/03/02 00:21:35;;;;;;;;;59.75;47.25;;;;;9.12;57.38;101720.00;5044898;28;45350;-91
2022/03/02 00:24:03;;;;;;;;;57.50;47.50;;;;;8.89;57.16;101687.25;5058343;28;45403;-90
2022/03/02 00:26:29;;;;;;;;;58.00;46.75;;;;;8.71;57.27;101646.06;5058438;28;46339;-91
2022/03/02 00:28:55;;;;;;;;;57.50;45.50;;;;;8.76;57.41;101675.16;5058904;28;45384;-90
2022/03/02 00:31:20;;;;;;;;;56.33;46.00;;;;;8.59;57.59;101634.00;5059567;28;45377;-85
2022/03/02 00:33:45;;;;;;;;;56.50;46.25;;;;;8.85;57.27;101680.00;5058854;28;45511;-91
2022/03/02 00:36:11;;;;;;;;;56.00;44.00;;;;;8.73;57.50;101656.63;5059230;28;45348;-90
2022/03/02 00:38:36;;;;;;;;;56.25;44.75;;;;;8.75;58.13;101657.63;5058524;28;45411;-91
2022/03/02 00:41:02;;;;;;;;;57.50;47.00;;;;;8.95;58.05;101687.56;5059365;28;45194;-90
2022/03/02 00:43:27;;;;;;;;;58.00;47.25;;;;;8.78;57.65;101649.94;5059201;28;45494;-90
2022/03/02 00:45:53;;;;;;;;;53.00;44.33;;;;;8.95;57.96;101675.38;5058520;28;51020;-91
2022/03/02 00:48:18;;;;;;;;;55.25;44.75;;;;;9.03;57.88;101686.28;5064270;28;45391;-90
2022/03/02 00:50:44;;;;;;;;;54.25;45.50;;;;;8.72;57.66;101624.28;5081118;27;44746;-87
2022/03/02 00:53:09;;;;;;;;;54.50;44.25;;;;;9.23;57.07;101709.28;5081805;28;44817;-85
2022/03/02 00:55:36;;;;;;;;;53.75;44.00;;;;;9.24;57.23;101708.47;5078648;28;45315;-89
2022/03/02 00:58:03;;;;;;;;;58.25;43.00;;;;;9.24;57.19;101704.94;5079621;27;45052;-87
2022/03/02 01:00:29;;;;;;;;;50.00;42.75;;;;;8.69;57.13;101615.34;5079766;28;45367;-86
2022/03/02 01:02:55;;;;;;;;;48.50;42.25;;;;;9.18;57.12;101702.88;5066649;28;45285;-90
2022/03/02 01:05:21;;;;;;;;;50.75;42.75;;;;;8.81;57.36;101638.72;5059694;28;45427;-89
2022/03/02 01:07:46;;;;;;;;;54.75;45.50;;;;;9.15;57.23;101701.78;5058074;28;45289;-90
2022/03/02 01:10:12;;;;;;;;;51.50;43.75;;;;;8.60;57.37;101618.34;5043390;28;44853;-89
2022/03/02 01:12:37;;;;;;;;;55.25;45.00;;;;;8.98;57.11;101679.88;5061969;28;44810;-92
2022/03/02 01:15:04;;;;;;;;;56.00;45.75;;;;;9.10;57.30;101696.28;5061664;28;45074;-88
2022/03/02 01:17:30;;;;;;;;;52.25;43.75;;;;;9.09;57.04;101691.88;5062104;28;44954;-89
2022/03/02 01:19:56;;;;;;;;;58.00;45.00;;;;;8.52;57.15;101599.59;5062890;28;45451;-85
2022/03/02 01:22:21;;;;;;;;;49.50;41.75;;;;;8.79;57.82;101647.41;5062881;28;44768;-86
2022/03/02 01:24:46;;;;;;;;;55.67;44.67;;;;;9.10;57.38;101709.41;5061718;28;45772;-91
2022/03/02 01:27:12;;;;;;;;;51.25;42.00;;;;;8.92;57.57;101664.72;5063277;28;44928;-83
2022/03/02 01:29:37;;;;;;;;;50.50;42.25;;;;;8.51;57.50;101578.53;5066160;28;45210;-90
2022/03/02 01:32:06;;;;;;;;;51.75;42.25;;;;;9.15;57.46;101691.31;5065730;28;44963;-90
2022/03/02 01:34:31;;;;;;;;;52.00;42.00;;;;;8.74;57.74;101611.25;5047767;28;47106;-89
2022/03/02 01:36:57;;;;;;;;;53.25;42.25;;;;;9.15;57.20;101680.81;5047343;28;45048;-89
2022/03/02 01:39:22;;;;;;;;;50.75;41.75;;;;;8.79;57.53;101613.31;5064905;28;44786;-87
2022/03/02 01:41:48;;;;;;;;;54.00;44.50;;;;;9.14;57.78;101687.78;5066030;28;45545;-90
2022/03/02 01:44:14;;;;;;;;;47.50;40.00;;;;;8.64;57.11;101590.59;5066758;28;45141;-80
2022/03/02 01:46:40;;;;;;;;;53.75;42.75;;;;;8.84;58.02;101620.53;5063975;28;45175;-88
2022/03/02 01:49:06;;;;;;;;;50.75;40.50;;;;;8.60;57.97;101580.75;5056744;28;44802;-87
2022/03/02 01:51:32;;;;;;;;;57.25;44.00;;;;;8.42;57.71;101551.81;5057879;28;45424;-85
2022/03/02 01:53:57;;;;;;;;;53.25;43.25;;;;;9.08;58.03;101669.09;5057653;28;45563;-89
2022/03/02 01:56:22;;;;;;;;;54.50;43.25;;;;;9.05;57.95;101664.56;5058169;28;44749;-89
2022/03/02 01:58:48;;;;;;;;;57.00;45.50;;;;;8.71;58.15;101614.59;5057371;28;44791;-89
2022/03/02 02:01:14;;;;;;;;;49.25;42.00;;;;;8.88;58.35;101644.41;5057784;28;44779;-90
2022/03/02 02:03:40;;;;;;;;;51.50;42.25;;;;;9.03;58.49;101668.84;5057675;28;45344;-87
2022/03/02 02:06:06;;;;;;;;;51.75;42.25;;;;;9.02;58.51;101663.53;5056890;28;45308;-89
2022/03/02 02:08:32;;;;;;;;;51.50;42.75;;;;;9.00;58.27;101652.91;5056687;28;45124;-90
2022/03/02 02:10:59;;;;;;;;;50.00;39.25;;;;;9.00;58.82;101650.31;5057313;28;44698;-89
2022/03/02 02:13:26;;;;;;;;;55.50;46.75;;;;;9.00;58.44;101652.91;5057817;28;46774;-89
2022/03/02 02:15:53;;;;;;;;;54.25;45.00;;;;;8.58;58.38;101582.41;5056263;28;45076;-91
2022/03/02 02:18:19;;;;;;;;;54.75;45.75;;;;;8.61;57.77;101591.31;5057358;28;44768;-88
2022/03/02 02:20:45;;;;;;;;;54.75;45.75;;;;;8.96;58.19;101642.19;5057816;28;44631;-88
2022/03/02 02:23:11;;;;;;;;;55.75;45.00;;;;;8.84;58.29;101625.78;5039221;28;47327;-87
2022/03/02 02:25:37;;;;;;;;;56.25;45.00;;;;;8.72;58.14;101600.72;5056527;28;44935;-91
2022/03/02 02:28:03;;;;;;;;;53.25;44.00;;;;;8.94;58.76;101636.84;5057629;28;45403;-89
2022/03/02 02:30:30;;;;;;;;;55.25;45.75;;;;;8.71;58.55;101588.41;5052331;28;44782;-87
2022/03/02 02:32:56;;;;;;;;;53.50;44.75;;;;;8.67;58.35;101578.59;5057613;28;46155;-87
2022/03/02 02:35:21;;;;;;;;;56.50;43.00;;;;;8.91;58.36;101614.81;5059411;28;44753;-89
2022/03/02 02:37:47;;;;;;;;;55.75;46.00;;;;;8.72;58.34;101589.31;5048777;28;45723;-88
2022/03/02 02:40:16;;;;;;;;;48.50;42.25;;;;;8.89;58.25;101612.09;5039717;28;45478;-90
2022/03/02 02:42:45;;;;;;;;;48.75;42.00;;;;;8.65;58.56;101567.09;5039667;28;46541;-89
2022/03/02 02:45:14;;;;;;;;;53.75;45.00;;;;;8.41;58.56;101529.06;5039683;28;45541;-89
2022/03/02 02:47:40;;;;;;;;;47.50;39.50;;;;;8.66;59.00;101565.38;5036840;28;45345;-91
2022/03/02 02:50:19;;;;;;;;;55.25;42.25;;;;;8.83;58.58;101601.28;5039314;28;45333;-91
2022/03/02 02:52:45;;;;;;;;;58.25;47.25;;;;;8.51;58.88;101541.84;5039434;28;45380;-92
2022/03/02 02:55:12;;;;;;;;;51.75;41.75;;;;;8.80;59.20;101595.88;5038482;28;45399;-91
2022/03/02 02:57:37;;;;;;;;;58.25;47.00;;;;;8.76;58.78;101592.16;5039394;28;45456;-90
2022/03/02 03:00:08;;;;;;;;;55.00;44.50;;;;;8.75;58.85;101594.72;5039206;28;45316;-92
2022/03/02 03:02:33;;;;;;;;;59.00;45.25;;;;;8.71;59.28;101593.63;5038922;28;46537;-89
2022/03/02 03:04:58;;;;;;;;;54.50;41.50;;;;;7.90;58.54;101454.59;5039177;28;45289;-87
2022/03/02 03:07:24;;;;;;;;;55.75;42.75;;;;;8.43;59.02;101545.78;5031932;28;45369;-91
2022/03/02 03:09:49;;;;;;;;;53.75;45.25;;;;;8.41;59.08;101550.00;5018805;28;45159;-90
2022/03/02 03:12:14;;;;;;;;;55.75;44.75;;;;;7.88;59.25;101461.44;5018708;28;46432;-87
2022/03/02 03:14:40;;;;;;;;;55.67;43.00;;;;;8.09;58.86;101503.66;5019301;28;45257;-89
2022/03/02 03:17:06;;;;;;;;;57.00;45.25;;;;;8.35;59.43;101547.03;5018743;28;45831;-90
2022/03/02 03:19:31;;;;;;;;;48.75;41.25;;;;;8.24;59.37;101539.47;5018890;28;45627;-88
2022/03/02 03:22:06;;;;;;;;;53.33;42.67;;;;;8.48;59.64;101573.13;5018795;28;46353;-90
2022/03/02 03:24:32;;;;;;;;;51.75;40.75;;;;;8.38;59.51;101553.38;5018602;28;45321;-88
2022/03/02 03:26:57;;;;;;;;;50.25;41.75;;;;;7.82;59.77;101451.53;5018543;28;45568;-90
2022/03/02 03:29:23;;;;;;;;;51.67;42.67;;;;;7.90;59.94;101465.06;5022750;28;45471;-91
2022/03/02 03:31:48;;;;;;;;;44.50;39.50;;;;;8.19;60.03;101513.84;5038186;28;51121;-89
2022/03/02 03:34:13;;;;;;;;;51.67;41.00;;;;;8.50;59.82;101563.63;5023453;28;45406;-88
2022/03/02 03:36:39;;;;;;;;;54.00;45.00;;;;;8.31;59.69;101524.09;5017735;28;45297;-90
2022/03/02 03:39:04;;;;;;;;;52.00;39.50;;;;;7.75;60.17;101424.13;5005648;28;45570;-88
2022/03/02 03:41:30;;;;;;;;;52.75;44.25;;;;;8.40;60.01;101527.25;5020632;28;45636;-87
2022/03/02 03:43:55;;;;;;;;;53.00;43.50;;;;;8.14;59.89;101481.25;5018552;28;45393;-90
2022/03/02 03:46:20;;;;;;;;;54.50;42.75;;;;;8.62;59.89;101566.00;5018706;28;45407;-90
2022/03/02 03:48:46;;;;;;;;;55.67;43.67;;;;;8.65;59.67;101563.56;5018641;28;45450;-90
2022/03/02 03:51:12;;;;;;;;;50.00;42.25;;;;;8.67;59.82;101570.72;5017392;28;46275;-88
2022/03/02 03:53:37;;;;;;;;;51.00;43.33;;;;;8.57;59.35;101536.97;5025896;28;45287;-91
2022/03/02 03:56:03;;;;;;;;;48.75;40.00;;;;;8.72;59.45;101563.13;5018074;28;45519;-90
2022/03/02 03:58:28;;;;;;;;;53.75;42.50;;;;;8.02;59.24;101439.56;5018287;28;45194;-91
2022/03/02 04:00:54;;;;;;;;;46.67;39.67;;;;;8.56;59.56;101527.28;5017689;28;46690;-88
2022/03/02 04:03:20;;;;;;;;;52.75;41.25;;;;;8.13;59.82;101446.31;5017769;28;45710;-88
2022/03/02 04:05:45;;;;;;;;;58.00;45.75;;;;;8.68;59.53;101541.06;5017988;28;45317;-91
2022/03/02 04:08:11;;;;;;;;;50.50;40.00;;;;;8.61;59.53;101514.44;5017807;28;45633;-88
2022/03/02 04:10:36;;;;;;;;;46.50;40.50;;;;;8.33;59.44;101460.53;5017951;28;46261;-91
2022/03/02 04:13:02;;;;;;;;;53.50;45.00;;;;;8.87;59.40;101549.94;5017875;28;45551;-83
2022/03/02 04:15:28;;;;;;;;;45.75;38.25;;;;;8.61;59.67;101501.34;5018097;28;45341;-91
2022/03/02 04:17:53;;;;;;;;;43.50;39.75;;;;;8.68;59.50;101504.38;5017686;28;45523;-90
2022/03/02 04:20:18;;;;;;;;;55.67;45.00;;;;;8.49;59.92;101483.25;5017949;28;46726;-91
2022/03/02 04:22:44;;;;;;;;;54.00;44.50;;;;;8.08;59.29;101381.41;5017795;28;45349;-84
2022/03/02 04:25:10;;;;;;;;;48.00;39.75;;;;;8.79;59.16;101508.47;5017745;28;45676;-90
2022/03/02 04:27:36;;;;;;;;;49.00;42.00;;;;;8.80;59.27;101504.13;5018078;28;45343;-89
2022/03/02 04:30:02;;;;;;;;;49.75;41.00;;;;;8.81;59.30;101499.78;5017483;28;45226;-89
2022/03/02 04:32:28;;;;;;;;;56.00;42.75;;;;;8.49;59.06;101433.47;5017729;28;45270;-90
2022/03/02 04:34:54;;;;;;;;;52.67;42.33;;;;;8.99;58.95;101520.03;5017278;28;45337;-90
2022/03/02 04:37:19;;;;;;;;;48.50;38.50;;;;;9.03;58.59;101515.84;4999567;28;45599;-90
2022/03/02 04:39:44;;;;;;;;;50.75;40.75;;;;;8.61;58.42;101441.97;5017049;28;45258;-90
2022/03/02 04:42:10;;;;;;;;;44.50;39.75;;;;;8.85;58.85;101483.41;5017352;28;45571;-89
2022/03/02 04:44:35;;;;;;;;;57.00;44.50;;;;;8.90;58.20;101489.78;5017551;28;45377;-90
2022/03/02 04:47:00;;;;;;;;;53.50;42.50;;;;;8.94;58.37;101499.63;5017580;28;45617;-90
2022/03/02 04:49:26;;;;;;;;;56.00;44.75;;;;;8.81;58.17;101473.56;5017096;28;45624;-90
2022/03/02 04:51:51;;;;;;;;;53.67;42.00;;;;;8.68;57.66;101445.84;5016342;28;45599;-81
2022/03/02 04:57:03;;;;;;;;;50.25;42.00;;;;;9.09;57.85;101516.19;5015709;28;45558;-87
2022/03/02 04:59:29;;;;;;;;;46.25;38.75;;;;;8.88;58.44;101479.25;4997744;28;47557;-85
2022/03/02 05:01:54;;;;;;;;;47.00;40.75;;;;;9.06;57.45;101508.13;5014573;28;45781;-81
2022/03/02 05:04:20;;;;;;;;;54.50;43.50;;;;;9.08;57.85;101510.84;5015952;28;45277;-84
2022/03/02 05:06:45;;;;;;;;;54.25;44.50;;;;;8.96;57.83;101487.50;5015555;28;45357;-85
2022/03/02 05:09:11;;;;;;;;;55.50;42.50;;;;;8.71;57.23;101445.97;5015543;28;45769;-87
2022/03/02 05:11:36;;;;;;;;;48.75;41.75;;;;;8.95;57.46;101481.34;5015742;28;45286;-89
2022/03/02 05:14:02;;;;;;;;;48.33;40.00;;;;;9.06;57.41;101500.28;5015582;28;45280;-86
2022/03/02 05:16:27;;;;;;;;;51.25;42.00;;;;;9.07;57.20;101504.72;5015369;28;45648;-88
2022/03/02 05:18:52;;;;;;;;;57.50;44.25;;;;;8.81;56.82;101455.22;5015320;28;45354;-83
2022/03/02 05:21:18;;;;;;;;;53.50;43.00;;;;;8.86;57.14;101462.50;4998152;28;45817;-82
2022/03/02 05:23:43;;;;;;;;;51.75;41.50;;;;;9.05;56.65;101494.13;5015874;28;45314;-85
2022/03/02 05:26:09;;;;;;;;;44.67;39.67;;;;;8.92;56.80;101470.72;5015106;28;46325;-86
2022/03/02 05:28:35;;;;;;;;;52.00;42.25;;;;;8.23;56.40;101356.09;5015404;28;46084;-87
2022/03/02 05:31:00;;;;;;;;;50.75;40.50;;;;;8.73;56.97;101442.63;5015159;28;45403;-84
2022/03/02 05:33:26;;;;;;;;;53.50;44.25;;;;;8.85;57.18;101471.22;5015434;28;45881;-86
2022/03/02 05:35:51;;;;;;;;;53.25;41.50;;;;;9.00;56.97;101490.38;5015221;28;45345;-82
2022/03/02 05:38:16;;;;;;;;;52.75;41.25;;;;;8.98;57.08;101494.63;4997278;28;47263;-89
2022/03/02 05:40:42;;;;;;;;;49.50;41.00;;;;;8.96;57.13;101492.75;5016385;28;45500;-90
2022/03/02 05:43:08;;;;;;;;;45.75;38.00;;;;;8.85;56.80;101481.69;5016474;28;45533;-90
2022/03/02 05:45:34;;;;;;;;;50.50;43.00;;;;;8.69;56.77;101452.88;5016565;28;45410;-89
2022/03/02 05:47:59;;;;;;;;;51.50;44.00;;;;;8.89;57.00;101490.63;5016122;28;46449;-90
2022/03/02 05:50:25;;;;;;;;;54.50;43.50;;;;;8.86;56.84;101482.59;5016197;28;45282;-83
2022/03/02 05:52:50;;;;;;;;;54.00;44.25;;;;;8.74;56.68;101462.78;5016334;28;45606;-89
2022/03/02 05:55:15;;;;;;;;;48.33;41.67;;;;;8.35;56.88;101397.72;5016060;28;45333;-90
2022/03/02 05:57:41;;;;;;;;;54.33;44.67;;;;;8.73;56.80;101465.31;5015931;28;45945;-89
2022/03/02 06:00:07;;;;;;;;;53.00;44.75;;;;;8.83;57.06;101488.59;5016052;28;45339;-89
2022/03/02 06:02:33;;;;;;;;;56.25;44.00;;;;;8.82;56.61;101489.41;5016463;28;45435;-87
2022/03/02 06:04:58;;;;;;;;;51.50;41.25;;;;;8.18;56.65;101374.16;5022569;28;45406;-89
2022/03/02 06:07:24;;;;;;;;;49.75;41.50;;;;;8.69;56.48;101466.88;5035592;28;46211;-89
2022/03/02 06:09:49;;;;;;;;;49.67;41.00;;;;;8.61;56.35;101448.94;5035340;28;45288;-90
2022/03/02 06:12:16;;;;;;;;;49.00;42.00;;;;;8.58;56.63;101444.44;5036035;28;45652;-89
2022/03/02 06:14:41;;;;;;;;;48.50;42.25;;;;;8.70;56.64;101459.91;5039690;28;45555;-89
2022/03/02 06:17:09;;;;;;;;;49.50;41.50;;;;;8.47;56.72;101419.38;5027772;28;46642;-89
2022/03/02 06:19:35;;;;;;;;;44.50;38.25;;;;;8.88;56.49;101481.88;5030820;28;45324;-83
2022/03/02 06:22:03;;;;;;;;;50.50;42.75;;;;;8.57;56.60;101421.69;5022398;28;45454;-89
2022/03/02 06:24:30;;;;;;;;;45.50;39.00;;;;;8.49;55.81;101407.28;5038546;28;45304;-88
2022/03/02 06:26:55;;;;;;;;;48.00;41.00;;;;;8.71;56.21;101452.13;5033179;28;45298;-90
2022/03/02 06:29:21;;;;;;;;;50.00;40.25;;;;;8.92;56.34;101475.06;5027016;28;45663;-86
2022/03/02 06:31:46;;;;;;;;;52.33;42.67;;;;;8.71;55.99;101440.75;5039475;28;45602;-90
2022/03/02 06:34:11;;;;;;;;;47.50;39.50;;;;;8.89;55.76;101485.38;5039589;28;45299;-90
2022/03/02 06:36:37;;;;;;;;;48.00;40.50;;;;;8.60;55.80;101423.56;5039214;28;45371;-90
2022/03/02 06:39:03;;;;;;;;;47.00;40.33;;;;;8.70;55.74;101433.69;5038768;28;45460;-87
2022/03/02 06:41:35;;;;;;;;;54.25;40.75;;;;;8.79;55.85;101457.78;5039583;28;45456;-90
2022/03/02 06:44:04;;;;;;;;;51.25;42.50;;;;;8.92;55.45;101483.84;5039469;28;45206;-91
2022/03/02 06:46:42;;;;;;;;;44.75;40.50;;;;;8.93;55.48;101488.25;5021104;28;47519;-89
2022/03/02 06:49:23;;;;;;;;;50.00;38.75;;;;;8.55;55.67;101415.44;5034167;28;45749;-89
2022/03/02 06:52:00;;;;;;;;;47.25;40.25;;;;;8.90;55.72;101477.59;5012244;28;45468;-80
2022/03/02 06:54:31;;;;;;;;;53.75;39.50;;;;;8.35;55.68;101377.69;5027213;28;45361;-87
2022/03/02 06:57:00;;;;;;;;;48.25;37.25;;;;;8.82;55.17;101459.66;5026641;28;45538;-88
2022/03/02 06:59:35;;;;;;;;;48.25;39.00;;;;;8.75;55.06;101445.31;5028727;28;45666;-87
2022/03/02 07:02:04;;;;;;;;;47.25;39.50;;;;;8.88;55.19;101463.50;5028377;28;45232;-84
2022/03/02 07:04:38;;;;;;;;;49.25;40.50;;;;;9.06;55.08;101495.03;5026679;28;45501;-84
2022/03/02 07:07:04;;;;;;;;;52.25;43.00;;;;;8.66;55.22;101426.50;5008183;28;46787;-90
2022/03/02 07:09:31;;;;;;;;;51.50;41.75;;;;;9.11;55.14;101497.88;5027741;28;45583;-86
2022/03/02 07:12:00;;;;;;;;;45.00;39.50;;;;;8.92;55.11;101467.22;5024504;28;45398;-85
2022/03/02 07:14:28;;;;;;;;;47.75;41.00;;;;;9.04;55.06;101486.19;5020495;28;45580;-89
2022/03/02 07:16:56;;;;;;;;;53.00;43.25;;;;;9.00;54.96;101474.63;5024256;28;46314;-87
2022/03/02 07:19:22;;;;;;;;;51.25;41.25;;;;;9.21;54.77;101505.41;5024268;28;45699;-90
2022/03/02 07:21:49;;;;;;;;;45.00;39.00;;;;;9.13;55.18;101486.69;5032161;28;45373;-91
2022/03/02 07:24:19;;;;;;;;;45.00;39.00;;;;;8.75;54.85;101421.75;5035656;28;45336;-87
2022/03/02 07:26:50;;;;;;;;;49.25;41.25;;;;;9.08;54.61;101463.66;5026500;28;46195;-87
2022/03/02 07:29:18;;;;;;;;;44.50;38.25;;;;;9.12;54.67;101465.63;5023297;28;45483;-84
2022/03/02 07:31:45;;;;;;;;;46.50;39.00;;;;;8.79;54.04;101405.38;5025557;28;45480;-78
2022/03/02 07:34:12;;;;;;;;;54.75;44.75;;;;;9.37;54.19;101505.41;5024996;28;45386;-84
2022/03/02 07:36:40;;;;;;;;;49.00;40.00;;;;;9.41;53.85;101498.56;5028650;28;45583;-84
2022/03/02 07:39:06;;;;;;;;;48.75;40.25;;;;;8.85;54.11;101396.91;5029052;28;46160;-90
2022/03/02 07:41:31;;;;;;;;;50.25;40.50;;;;;9.20;53.80;101459.94;5025785;28;45346;-88
2022/03/02 07:43:57;;;;;;;;;47.00;39.00;;;;;9.28;53.61;101463.84;5024566;28;45368;-84
2022/03/02 07:46:22;;;;;;;;;45.25;38.25;;;;;9.48;53.13;101491.09;5015945;28;45365;-81
2022/03/02 07:48:48;;;;;;;;;43.00;39.50;;;;;8.98;53.72;101409.84;5030398;28;45938;-87
2022/03/02 07:51:15;;;;;;;;;51.25;42.75;;;;;8.73;53.25;101365.75;5039049;28;45456;-90
2022/03/02 07:53:43;;;;;;;;;42.50;36.75;;;;;9.46;53.38;101473.50;5046541;28;45140;-88
2022/03/02 07:56:10;;;;;;;;;45.25;38.25;;;;;9.54;53.30;101482.66;5053431;28;45356;-89
2022/03/02 07:58:39;;;;;;;;;50.50;40.00;;;;;9.65;53.51;101484.06;5052481;28;45192;-90
2022/03/02 08:01:07;;;;;;;;;47.50;39.00;;;;;9.39;53.25;101439.91;5038441;28;44897;-88
2022/03/02 08:03:37;;;;;;;;;49.25;39.25;;;;;9.34;52.79;101416.03;5028029;28;46296;-79
2022/03/02 08:06:02;;;;;;;;;49.50;40.25;;;;;9.35;53.10;101416.94;5024436;28;46089;-83
2022/03/02 08:08:28;;;;;;;;;53.25;41.25;;;;;9.78;53.61;101478.63;5022031;28;45470;-79
2022/03/02 08:10:53;;;;;;;;;43.50;37.50;;;;;9.85;53.34;101486.78;5025058;28;45502;-82
2022/03/02 08:13:19;;;;;;;;;43.50;37.25;;;;;9.85;52.64;101485.06;5044946;28;44905;-78
2022/03/02 08:15:45;;;;;;;;;44.75;38.50;;;;;9.85;52.54;101482.44;5035112;28;47941;-79
2022/03/02 08:18:10;;;;;;;;;48.00;40.50;;;;;9.64;52.59;101450.78;5010502;28;45516;-91
2022/03/02 08:20:44;;;;;;;;;45.75;38.75;;;;;9.45;52.46;101411.31;5019508;28;45416;-89
2022/03/02 08:23:11;;;;;;;;;41.25;36.25;;;;;8.55;52.52;101245.16;5025973;28;45598;-89
2022/03/02 08:25:40;;;;;;;;;40.75;37.25;;;;;10.01;51.96;101489.38;5041979;28;45270;-91
2022/03/02 08:28:09;;;;;;;;;42.75;37.75;;;;;10.03;52.17;101491.22;5038103;28;45244;-90
2022/03/02 08:30:36;;;;;;;;;49.25;41.25;;;;;10.08;52.39;101486.19;5046424;28;45452;-91
2022/03/02 08:33:03;;;;;;;;;42.00;37.25;;;;;10.17;52.34;101486.63;5037779;28;45331;-91
2022/03/02 08:35:34;;;;;;;;;46.50;40.00;;;;;10.24;52.00;101486.13;5040459;28;45642;-88
2022/03/02 08:38:01;;;;;;;;;49.75;40.50;;;;;9.98;51.66;101444.56;5040322;28;45384;-90
2022/03/02 08:40:26;;;;;;;;;47.25;37.75;;;;;10.28;51.79;101485.44;5033720;28;45480;-91
2022/03/02 08:42:52;;;;;;;;;35.00;31.50;;;;;9.87;51.94;101419.53;5046991;28;45419;-90
2022/03/02 08:45:19;;;;;;;;;45.75;38.00;;;;;9.75;51.48;101399.72;5052586;28;46143;-91
2022/03/02 08:47:45;;;;;;;;;47.00;39.25;;;;;10.35;51.96;101501.53;5043529;28;45350;-79
2022/03/02 08:50:10;;;;;;;;;52.25;44.00;;;;;10.02;51.54;101442.16;5019417;28;45713;-84
2022/03/02 08:52:37;;;;;;;;;49.25;42.00;;;;;9.95;51.79;101412.88;5044072;28;45097;-81
2022/03/02 08:55:09;;;;;;;;;53.50;41.50;;;;;10.26;51.71;101468.72;5033099;28;45752;-89
2022/03/02 08:57:40;;;;;;;;;16.00;10.75;;;;;10.41;51.69;101479.06;5025728;28;46514;-90
2022/03/02 09:00:07;;;;;;;;;47.00;40.00;;;;;10.07;51.49;101418.75;5036119;28;45463;-89
2022/03/02 09:02:35;;;;;;;;;46.75;40.00;;;;;10.55;51.76;101488.50;5033849;28;45490;-90
2022/03/02 09:05:02;;;;;;;;;51.25;39.25;;;;;10.45;51.40;101448.56;5027072;28;45732;-90
2022/03/02 09:07:27;;;;;;;;;46.00;40.00;;;;;9.85;51.22;101334.50;5017358;28;45476;-90
2022/03/02 09:09:53;;;;;;;;;51.50;42.50;;;;;10.69;50.92;101482.94;5019096;28;45427;-92
2022/03/02 09:12:19;;;;;;;;;49.50;38.75;;;;;10.84;51.35;101487.19;5023142;28;45688;-90
2022/03/02 09:14:44;;;;;;;;;52.75;42.25;;;;;10.83;50.90;101480.13;5047607;28;46397;-90
2022/03/02 09:17:10;;;;;;;;;47.50;40.25;;;;;9.98;50.84;101329.91;5052630;28;45408;-92
2022/03/02 09:19:35;;;;;;;;;52.00;44.00;;;;;9.96;50.46;101313.19;5016153;28;45547;-91
2022/03/02 09:22:03;;;;;;;;;52.50;42.75;;;;;10.46;50.76;101401.34;5052200;28;45136;-90
2022/03/02 09:24:30;;;;;;;;;46.50;39.25;;;;;10.97;51.21;101462.31;5045764;28;46062;-89
2022/03/02 09:26:59;;;;;;;;;53.75;42.50;;;;;10.17;50.60;101318.53;5024573;28;45793;-86
2022/03/02 09:29:29;;;;;;;;;52.25;43.00;;;;;11.01;50.74;101442.34;5035356;28;45535;-89
2022/03/02 09:31:57;;;;;;;;;51.75;40.25;;;;;10.50;50.66;101353.34;5023043;28;46732;-86
2022/03/02 09:34:27;;;;;;;;;51.00;40.25;;;;;10.12;50.34;101270.13;5027207;28;46152;-90
2022/03/02 09:36:57;;;;;;;;;45.50;40.50;;;;;10.82;50.39;101360.00;5037432;28;45403;-93
2022/03/02 09:39:23;;;;;;;;;50.50;41.75;;;;;10.83;50.00;101363.53;5012248;28;45357;-91
2022/03/02 09:42:10;;;;;;;;;43.50;38.00;;;;;11.51;50.21;101472.56;5034139;28;45478;-88
2022/03/02 09:44:46;;;;;;;;;48.25;41.75;;;;;11.56;49.97;101464.00;5033588;28;45597;-91
2022/03/02 09:47:17;;;;;;;;;53.75;42.25;;;;;10.64;49.86;101296.13;5022288;28;45475;-90
2022/03/02 09:49:49;;;;;;;;;52.00;42.75;;;;;10.55;49.88;101261.56;5035304;28;45433;-87
2022/03/02 09:52:19;;;;;;;;;50.25;42.50;;;;;11.80;50.10;101457.97;5037254;28;45368;-93
2022/03/02 09:54:47;;;;;;;;;48.50;39.50;;;;;11.93;49.35;101467.31;5038010;28;45504;-90
2022/03/02 09:57:17;;;;;;;;;51.25;41.75;;;;;11.07;49.24;101311.06;5039675;28;46501;-89
2022/03/02 09:59:49;;;;;;;;;54.25;43.75;;;;;12.11;49.19;101461.03;5049259;28;45128;-91
2022/03/02 10:02:29;;;;;;;;;49.75;41.75;;;;;12.11;48.49;101453.13;5051502;28;45002;-91
2022/03/02 10:04:58;;;;;;;;;43.50;36.75;;;;;10.89;48.21;101226.16;5054277;28;45708;-91
2022/03/02 10:07:29;;;;;;;;;39.00;35.00;;;;;11.63;48.20;101344.06;5046472;28;45682;-90
2022/03/02 10:10:04;;;;;;;;;53.00;41.50;;;;;12.10;48.62;101413.53;5011226;28;45745;-85
2022/03/02 10:12:31;;;;;;;;;48.50;41.25;;;;;12.39;48.47;101455.09;5030491;28;45234;-89
2022/03/02 10:14:58;;;;;;;;;51.75;42.50;;;;;11.48;48.38;101275.03;5050767;28;45165;-91
2022/03/02 10:17:33;;;;;;;;;51.50;42.50;;;;;12.57;48.49;101456.66;5054525;28;45549;-89
2022/03/02 10:20:02;;;;;;;;;53.50;41.75;;;;;12.60;48.41;101455.00;5035941;28;45358;-80
2022/03/02 10:22:36;;;;;;;;;53.25;43.25;;;;;12.22;48.63;101377.13;5026512;28;45506;-88
2022/03/02 10:25:06;;;;;;;;;52.50;42.75;;;;;12.34;48.16;101400.41;5021269;28;45331;-90
2022/03/02 10:28:06;;;;;;;;;45.75;39.25;;;;;12.67;47.52;101437.69;5027710;28;45550;-85
2022/03/02 10:30:40;;;;;;;;;52.50;42.25;;;;;12.59;47.95;101426.84;5038033;28;45251;-89
2022/03/02 10:33:17;;;;;;;;;49.00;41.25;;;;;12.70;48.03;101432.53;5030787;28;45535;-86
2022/03/02 10:35:50;;;;;;;;;50.00;40.75;;;;;12.70;48.11;101410.53;5029601;28;45494;-88
2022/03/02 10:38:27;;;;;;;;;48.50;40.50;;;;;12.69;47.85;101411.38;5036590;28;45446;-82
2022/03/02 10:40:58;;;;;;;;;47.50;40.00;;;;;12.58;47.48;101388.16;5033668;28;45549;-92
2022/03/02 10:43:37;;;;;;;;;50.50;42.50;;;;;12.39;46.95;101349.66;5033865;28;45903;-90
2022/03/02 10:46:06;;;;;;;;;44.75;38.50;;;;;12.56;47.13;101363.47;5032162;28;45682;-87
2022/03/02 10:48:38;;;;;;;;;50.75;40.00;;;;;12.96;47.15;101416.78;5028300;28;45913;-91
2022/03/02 10:51:06;;;;;;;;;49.75;42.25;;;;;12.99;46.96;101411.56;5036436;28;45559;-79
2022/03/02 10:53:36;;;;;;;;;52.25;42.75;;;;;12.93;47.25;101391.16;5015208;28;45569;-91
2022/03/02 10:56:04;;;;;;;;;53.00;42.00;;;;;12.82;47.13;101358.22;5032394;28;45591;-86
2022/03/02 10:58:30;;;;;;;;;49.50;40.75;;;;;12.78;47.54;101337.84;5036414;28;45910;-79
2022/03/02 11:00:57;;;;;;;;;45.75;39.50;;;;;13.10;46.82;101378.53;5029394;28;45384;-91
2022/03/02 11:03:27;;;;;;;;;49.00;41.00;;;;;13.01;46.52;101357.13;5019613;28;45530;-89
2022/03/02 11:05:55;;;;;;;;;54.00;41.75;;;;;12.75;46.76;101303.44;5028144;28;47591;-90
2022/03/02 11:08:24;;;;;;;;;46.50;39.00;;;;;13.21;46.44;101371.00;5023228;28;45549;-83
2022/03/02 11:10:50;;;;;;;;;50.50;40.25;;;;;13.34;45.96;101387.31;5035289;28;45733;-88
2022/03/02 11:13:16;;;;;;;;;51.00;42.00;;;;;13.16;46.06;101350.63;5031597;28;45659;-86
2022/03/02 11:15:49;;;;;;;;;49.25;39.00;;;;;13.40;46.40;101379.63;5024069;28;47617;-90
2022/03/02 11:18:16;;;;;;;;;43.50;38.75;;;;;13.03;46.18;101297.38;5025895;28;45492;-83